Time;durP1;ratioP1;P1;durP2;ratioP2;P2;SDS_P1;SDS_P2;PMS_P1;PMS_P2;Temp;Humidity;BMP_temperature;BMP_pressure;BME280_temperature;BME280_humidity;BME280_pressure;Samples;Min_cycle;Max_cycle;Signal;HPM_P1;HPM_P2
2024/04/19 00:03:06;;;;;;;;;;;7.00;97.90;;;;;;6463239;21;20023;31
2024/04/19 00:05:49;;;;;;;3.20;1.70;;;6.90;98.10;;;;;;6613350;21;19959;-79
2024/04/19 00:08:49;;;;;;;5.00;1.73;;;7.60;98.70;;;;;;6480030;21;20031;31
2024/04/19 00:11:20;;;;;;;3.45;1.50;;;6.80;98.50;;;;;;6475594;21;20038;-79
2024/04/19 00:13:51;;;;;;;4.07;1.60;;;6.80;98.80;;;;;;6600272;21;20054;-79
2024/04/19 00:19:25;;;;;;;4.30;2.30;;;6.70;98.80;;;;;;6625974;21;20062;-79
2024/04/19 00:21:53;;;;;;;3.67;2.22;;;7.10;99.30;;;;;;6614169;21;19999;-76
2024/04/19 00:27:19;;;;;;;;;;;6.70;99.40;;;;;;6559136;21;20004;-80
2024/04/19 00:29:47;;;;;;;2.53;1.30;;;6.70;99.60;;;;;;6577826;21;19937;-77
2024/04/19 00:38:33;;;;;;;3.35;2.10;;;6.60;99.90;;;;;;6577434;21;20268;-81
2024/04/19 00:41:04;;;;;;;3.65;1.65;;;6.60;99.90;;;;;;6412590;21;19996;-79
2024/04/19 00:46:37;;;;;;;4.18;1.50;;;6.80;99.90;;;;;;6503280;21;20002;-79
2024/04/19 00:49:31;;;;;;;5.15;1.85;;;6.80;99.90;;;;;;6638179;21;19996;-77
2024/04/19 00:52:04;;;;;;;3.03;1.67;;;6.80;99.90;;;;;;6634454;21;20069;-77
2024/04/19 00:54:32;;;;;;;3.35;1.90;;;6.60;99.90;;;;;;6587540;21;19995;-77
2024/04/19 00:57:03;;;;;;;3.05;1.70;;;6.60;99.90;;;;;;6587726;21;20011;-77
2024/04/19 00:59:34;;;;;;;5.47;1.90;;;6.60;99.90;;;;;;6587810;21;20432;-77
2024/04/19 01:02:04;;;;;;;4.53;1.92;;;6.60;99.90;;;;;;6634102;21;20002;-77
2024/04/19 01:04:32;;;;;;;4.15;1.50;;;6.60;99.90;;;;;;6525631;22;20501;-77
2024/04/19 01:07:03;;;;;;;2.42;1.40;;;6.60;99.90;;;;;;6525276;22;20424;-77
2024/04/19 01:09:30;;;;;;;4.25;1.83;;;6.70;99.90;;;;;;6525414;22;19997;-77
2024/04/19 01:12:01;;;;;;;3.47;1.58;;;6.60;99.90;;;;;;6525492;22;20071;-77
2024/04/19 01:14:29;;;;;;;4.75;1.75;;;6.70;99.90;;;;;;6482152;22;20355;-77
2024/04/19 01:17:02;;;;;;;2.72;1.83;;;6.70;99.90;;;;;;6482299;22;20033;-77
2024/04/19 01:19:30;;;;;;;3.13;1.80;;;6.60;99.90;;;;;;6525262;22;19997;-76
2024/04/19 01:22:01;;;;;;;3.08;1.70;;;6.60;99.90;;;;;;6482936;22;20025;-77
2024/04/19 01:24:38;;;;;;;4.00;1.85;;;6.50;99.90;;;;;;6525405;22;20419;-77
2024/04/19 01:27:11;;;;;;;4.60;2.33;;;6.50;99.90;;;;;;6482214;22;20018;-77
2024/04/19 01:29:39;;;;;;;3.50;1.65;;;6.50;99.90;;;;;;6483963;22;20107;-77
2024/04/19 01:32:10;;;;;;;4.13;1.95;;;6.50;99.90;;;;;;6484095;22;20009;-77
2024/04/19 01:34:37;;;;;;;3.58;1.75;;;6.40;99.90;;;;;;6484051;22;20115;-77
2024/04/19 01:37:08;;;;;;;2.85;1.92;;;6.30;99.90;;;;;;6484316;22;20008;-77
2024/04/19 01:39:37;;;;;;;3.85;1.83;;;6.30;99.90;;;;;;6527233;22;20052;-77
2024/04/19 01:42:12;;;;;;;4.82;2.45;;;6.30;99.90;;;;;;6531529;21;20064;-77
2024/04/19 01:44:40;;;;;;;3.80;2.13;;;6.20;99.90;;;;;;6589810;21;19999;-77
2024/04/19 01:47:11;;;;;;;3.60;1.75;;;6.20;99.90;;;;;;6579739;21;20028;-77
2024/04/19 01:49:41;;;;;;;;;;;6.10;99.90;;;;;;6583798;21;20009;-77
2024/04/19 01:52:12;;;;;;;4.57;1.90;;;6.20;99.90;;;;;;6580834;21;19921;-77
2024/04/19 01:54:39;;;;;;;4.50;2.40;;;6.20;99.90;;;;;;6580786;21;20008;-77
2024/04/19 01:57:14;;;;;;;5.85;2.33;;;6.00;99.90;;;;;;6580814;21;20007;-77
2024/04/19 02:09:00;;;;;;;5.15;2.20;;;6.10;99.90;;;;;;6578259;21;19917;-79
2024/04/19 02:11:30;;;;;;;3.20;1.85;;;6.30;99.90;;;;;;6607455;21;19993;-79
2024/04/19 02:14:03;;;;;;;4.95;2.10;;;5.90;99.90;;;;;;6605619;21;20016;-79
2024/04/19 02:16:33;;;;;;;4.13;2.30;;;5.90;99.90;;;;;;6601441;21;20003;-79
2024/04/19 02:19:01;;;;;;;3.95;1.85;;;5.70;99.90;;;;;;6607564;21;20039;-81
2024/04/19 02:21:34;;;;;;;4.20;2.30;;;5.70;99.90;;;;;;6607009;21;20008;-79
2024/04/19 02:24:04;;;;;;;3.85;2.28;;;5.70;99.90;;;;;;6507531;21;20024;-79
2024/04/19 02:26:37;;;;;;;4.13;1.85;;;5.60;99.90;;;;;;6615619;21;20038;-79
2024/04/19 02:31:57;;;;;;;4.68;1.40;;;5.70;99.90;;;;;;6606850;21;20008;-80
2024/04/19 02:34:28;;;;;;;4.47;1.83;;;5.30;99.90;;;;;;6606421;21;19996;-80
2024/04/19 02:36:58;;;;;;;5.20;2.25;;;4.50;99.90;;;;;;6562151;21;20001;-80
2024/04/19 02:39:29;;;;;;;3.65;2.05;;;5.50;99.90;;;;;;6606268;21;19989;-79
2024/04/19 02:42:00;;;;;;;3.67;1.90;;;5.40;99.90;;;;;;6607104;21;20032;-80
2024/04/19 02:44:56;;;;;;;4.05;1.98;;;5.50;99.90;;;;;;6606973;21;20007;-79
2024/04/19 02:47:58;;;;;;;5.15;1.80;;;5.20;99.90;;;;;;6599871;21;19987;31
2024/04/19 02:50:28;;;;;;;3.10;1.58;;;5.40;99.90;;;;;;6444926;21;20025;-79
2024/04/19 02:59:49;;;;;;;4.55;1.85;;;5.50;99.90;;;;;;6479687;21;19989;31
2024/04/19 03:02:25;;;;;;;3.90;1.50;;;5.60;99.90;;;;;;6575645;21;21012;31
2024/04/19 03:04:56;;;;;;;3.28;1.73;;;6.10;99.90;;;;;;6511470;21;20005;-80
2024/04/19 03:07:27;;;;;;;3.10;1.50;;;5.70;99.90;;;;;;6553697;21;20032;-80
2024/04/19 03:09:57;;;;;;;4.78;1.92;;;5.60;99.90;;;;;;6511316;21;19994;-81
2024/04/19 03:16:02;;;;;;;4.30;2.15;;;5.40;99.90;;;;;;4887795;25;17873820;-85
2024/04/19 03:19:29;;;;;;;5.95;2.08;;;5.50;99.90;;;;;;5425099;26;20004;-85
2024/04/19 03:22:32;;;;;;;3.33;1.80;;;5.70;99.90;;;;;;5400927;26;20000;-86
2024/04/19 04:11:52;;;;;;;5.22;2.70;;;5.10;99.90;;;;;;6488870;21;20035;-79
2024/04/19 04:14:23;;;;;;;6.40;2.67;;;5.40;99.90;;;;;;5331650;26;20049;-79
2024/04/19 04:16:56;;;;;;;5.30;2.65;;;5.00;99.90;;;;;;5338000;26;20005;-79
2024/04/19 04:19:26;;;;;;;7.97;3.63;;;5.30;99.90;;;;;;5308980;27;20005;-77
2024/04/19 04:21:57;;;;;;;8.55;3.10;;;5.10;99.90;;;;;;5338802;26;19997;-78
2024/04/19 04:24:27;;;;;;;4.68;2.08;;;4.90;99.90;;;;;;5320596;27;20505;-78
2024/04/19 04:27:00;;;;;;;6.13;2.53;;;5.00;99.90;;;;;;5318007;26;20081;-78
2024/04/19 04:29:31;;;;;;;4.15;2.10;;;5.10;99.90;;;;;;5292902;26;20012;-78
2024/04/19 04:32:01;;;;;;;6.10;2.60;;;5.00;99.90;;;;;;5298924;26;20021;-77
2024/04/19 04:34:31;;;;;;;6.07;2.22;;;5.00;99.90;;;;;;5329481;26;19998;-77
2024/04/19 04:37:02;;;;;;;5.20;2.63;;;5.10;99.90;;;;;;5301324;26;20002;-77
2024/04/19 04:39:32;;;;;;;3.45;2.00;;;5.10;99.90;;;;;;5303333;26;20013;-78
2024/04/19 04:42:05;;;;;;;5.10;2.22;;;5.10;99.90;;;;;;5300485;27;20402;-78
2024/04/19 04:44:36;;;;;;;5.30;2.20;;;5.20;99.90;;;;;;5292410;26;20359;-76
2024/04/19 04:47:06;;;;;;;6.72;2.88;;;5.20;99.90;;;;;;5292629;26;20081;-78
2024/04/19 04:49:36;;;;;;;7.05;2.92;;;5.20;99.90;;;;;;5295624;27;20748;-77
2024/04/19 04:52:08;;;;;;;8.55;3.13;;;5.30;99.90;;;;;;5319536;26;20005;-77
2024/04/19 04:54:40;;;;;;;5.68;2.75;;;5.20;99.90;;;;;;5299567;26;20015;-76
2024/04/19 04:57:13;;;;;;;5.72;3.00;;;5.20;99.90;;;;;;5325836;26;20006;-77
2024/04/19 04:59:43;;;;;;;6.75;2.95;;;5.20;99.90;;;;;;5298083;26;20005;-77
2024/04/19 05:02:14;;;;;;;7.22;3.85;;;5.20;99.90;;;;;;5300310;26;20489;-78
2024/04/19 05:04:45;;;;;;;6.82;3.30;;;5.30;99.90;;;;;;5300221;27;20009;-78
2024/04/19 05:07:15;;;;;;;7.63;4.15;;;5.40;99.90;;;;;;5281953;27;20007;-77
2024/04/19 05:09:45;;;;;;;6.40;2.53;;;5.50;99.90;;;;;;5321297;26;20010;-77
2024/04/19 05:12:18;;;;;;;6.20;3.15;;;5.40;99.90;;;;;;5297750;27;20010;-75
2024/04/19 05:14:49;;;;;;;5.00;2.70;;;5.30;99.90;;;;;;5298560;26;20001;-76
2024/04/19 05:17:19;;;;;;;7.63;3.30;;;5.30;99.90;;;;;;5292636;27;20017;-78
2024/04/19 05:19:49;;;;;;;7.95;3.60;;;5.40;99.90;;;;;;5303095;27;20084;-77
2024/04/19 05:22:19;;;;;;;9.20;3.38;;;5.50;99.90;;;;;;5326584;26;20008;-78
2024/04/19 05:24:51;;;;;;;12.07;3.95;;;5.60;99.90;;;;;;5289668;26;20007;-75
2024/04/19 05:27:25;;;;;;;14.25;5.78;;;5.60;99.90;;;;;;5316570;26;20002;-77
2024/04/19 05:29:55;;;;;;;9.63;4.22;;;5.70;99.90;;;;;;5242689;27;20473;-79
2024/04/19 05:32:25;;;;;;;11.13;4.53;;;5.70;99.90;;;;;;5322252;26;20035;-80
2024/04/19 05:34:56;;;;;;;7.63;3.28;;;5.90;99.90;;;;;;5292635;26;20527;-78
2024/04/19 05:37:26;;;;;;;5.85;2.50;;;5.90;99.90;;;;;;5319013;26;20002;-78
2024/04/19 05:39:57;;;;;;;7.00;3.00;;;6.00;99.90;;;;;;5301472;26;20005;-78
2024/04/19 05:42:30;;;;;;;6.25;2.63;;;6.10;99.90;;;;;;5323314;26;20001;-79
2024/04/19 05:45:04;;;;;;;10.13;4.43;;;6.20;99.90;;;;;;5318533;26;20095;-79
2024/04/19 05:47:34;;;;;;;5.72;3.10;;;6.30;99.90;;;;;;5295849;27;20002;-78
2024/04/19 05:50:05;;;;;;;7.47;3.30;;;6.40;99.90;;;;;;5294955;27;20584;-79
2024/04/19 05:52:35;;;;;;;11.57;4.25;;;6.50;99.90;;;;;;5328919;26;20009;-79
2024/04/19 05:55:10;;;;;;;13.27;6.45;;;6.60;99.90;;;;;;5298545;27;20010;-83
2024/04/19 05:57:46;;;;;;;7.13;3.20;;;6.70;99.90;;;;;;5301049;27;20002;-79
2024/04/19 06:00:17;;;;;;;9.55;3.47;;;6.80;99.90;;;;;;5322278;26;20092;-79
2024/04/19 06:02:47;;;;;;;6.30;3.22;;;6.80;99.90;;;;;;5295861;27;20002;-79
2024/04/19 06:05:18;;;;;;;8.02;2.58;;;6.90;99.90;;;;;;5291613;26;20010;-78
2024/04/19 06:07:49;;;;;;;5.57;2.25;;;7.10;99.90;;;;;;5289982;27;20417;-79
2024/04/19 06:10:19;;;;;;;7.15;3.85;;;7.20;99.90;;;;;;5289209;26;20033;-78
2024/04/19 06:12:52;;;;;;;5.10;2.72;;;7.40;99.90;;;;;;5309245;26;20020;-79
2024/04/19 06:15:22;;;;;;;8.95;4.05;;;7.50;99.70;;;;;;5293174;27;20003;-79
2024/04/19 06:17:53;;;;;;;11.75;2.45;;;7.80;99.30;;;;;;5282850;27;20084;-79
2024/04/19 06:20:23;;;;;;;4.03;1.80;;;7.80;96.30;;;;;;5283987;27;20013;-79
2024/04/19 06:22:53;;;;;;;12.70;2.30;;;7.90;94.20;;;;;;5284899;26;20017;-79
2024/04/19 06:25:23;;;;;;;27.38;4.40;;;7.90;92.90;;;;;;5292152;26;20002;-78
2024/04/19 06:27:56;;;;;;;6.82;2.50;;;8.20;93.00;;;;;;5291298;26;20037;-83
2024/04/19 06:30:27;;;;;;;4.88;1.80;;;8.30;92.30;;;;;;5293194;27;19998;-79
2024/04/19 06:32:57;;;;;;;2.78;1.23;;;8.50;92.30;;;;;;5303300;27;20013;-81
2024/04/19 06:35:28;;;;;;;7.30;1.60;;;8.70;91.40;;;;;;5321794;26;20010;-77
2024/04/19 06:37:58;;;;;;;2.15;0.75;;;8.50;90.00;;;;;;5317377;26;20009;-78
2024/04/19 06:40:28;;;;;;;18.63;3.25;;;8.60;90.00;;;;;;5285091;27;20002;-80
2024/04/19 06:43:01;;;;;;;3.78;1.35;;;8.70;88.70;;;;;;5289435;26;20518;-76
2024/04/19 06:45:36;;;;;;;4.13;0.73;;;8.70;86.60;;;;;;5290229;27;20012;-77
2024/04/19 06:48:08;;;;;;;3.17;1.10;;;8.70;86.30;;;;;;5293069;27;20013;-78
2024/04/19 06:50:39;;;;;;;5.83;1.37;;;8.80;85.20;;;;;;5294286;27;20014;-78
2024/04/19 06:53:09;;;;;;;1.88;1.13;;;9.00;85.60;;;;;;5281089;26;19998;-76
2024/04/19 06:55:39;;;;;;;4.85;1.00;;;9.20;84.50;;;;;;5293877;26;20010;-78
2024/04/19 06:58:12;;;;;;;12.20;2.33;;;9.20;82.40;;;;;;5311484;26;20088;-78
2024/04/19 07:00:43;;;;;;;6.05;2.10;;;9.20;82.60;;;;;;5284816;26;20458;-78
2024/04/19 07:03:34;;;;;;;3.13;0.60;;;9.30;82.20;;;;;;5291068;27;20458;-77
2024/04/19 07:06:11;;;;;;;53.90;6.65;;;9.20;81.10;;;;;;5320109;26;20005;-78
2024/04/19 07:08:52;;;;;;;2.65;0.60;;;9.40;81.90;;;;;;5300855;27;20002;-79
2024/04/19 07:11:25;;;;;;;3.00;0.63;;;9.50;80.40;;;;;;5307882;27;20006;-78
2024/04/19 07:13:58;;;;;;;14.90;2.80;;;9.40;79.30;;;;;;5293566;26;20503;-76
2024/04/19 07:16:28;;;;;;;39.28;4.85;;;9.60;79.60;;;;;;5295739;27;20484;-77
2024/04/19 07:19:02;;;;;;;2.35;0.40;;;9.60;77.50;;;;;;5289976;26;20053;-79
2024/04/19 07:21:32;;;;;;;3.03;0.75;;;9.90;78.50;;;;;;5292536;26;20024;-79
2024/04/19 07:24:02;;;;;;;17.45;2.20;;;10.10;78.10;;;;;;5293294;27;20021;-79
2024/04/19 07:26:34;;;;;;;6.47;1.13;;;10.00;77.10;;;;;;5291447;26;20017;-78
2024/04/19 07:29:07;;;;;;;5.35;1.77;;;9.90;77.10;;;;;;5323132;26;20010;-78
2024/04/19 07:31:37;;;;;;;4.22;0.90;;;10.00;76.70;;;;;;5304450;27;20016;-79
2024/04/19 07:34:08;;;;;;;25.23;2.67;;;10.40;77.40;;;;;;5288412;27;20006;-79
2024/04/19 07:36:38;;;;;;;3.13;1.27;;;10.30;74.50;;;;;;5296382;26;20006;-79
2024/04/19 07:39:08;;;;;;;3.63;0.82;;;10.20;74.60;;;;;;5297592;26;20033;-79
2024/04/19 07:41:41;;;;;;;105.55;10.95;;;10.20;74.50;;;;;;5294778;26;20002;-79
2024/04/19 07:44:15;;;;;;;2.13;0.50;;;10.40;75.80;;;;;;5294607;26;20002;-79
2024/04/19 07:46:46;;;;;;;;;;;10.50;74.80;;;;;;5289245;27;20083;-78
2024/04/19 07:49:17;;;;;;;4.55;1.23;;;10.50;74.80;;;;;;5288483;27;20291;-83
2024/04/19 07:51:47;;;;;;;1.15;0.30;;;10.70;75.90;;;;;;5287104;27;20085;-79
2024/04/19 07:54:18;;;;;;;2.15;0.30;;;10.50;73.40;;;;;;5319790;26;20010;-77
2024/04/19 07:56:49;;;;;;;2.35;0.38;;;10.60;73.90;;;;;;5288963;27;20029;-78
2024/04/19 07:59:22;;;;;;;2.58;0.40;;;10.60;72.60;;;;;;5303658;26;20602;-75
2024/04/19 08:01:52;;;;;;;1.63;0.30;;;10.90;73.20;;;;;;5292756;26;20373;-79
2024/04/19 08:04:23;;;;;;;4.90;1.35;;;10.90;72.50;;;;;;5301110;27;20030;-79
2024/04/19 08:06:53;;;;;;;3.13;1.30;;;10.90;74.40;;;;;;5320257;26;20005;-79
2024/04/19 08:09:23;;;;;;;3.03;1.10;;;10.80;74.80;;;;;;5301792;26;20002;-79
2024/04/19 08:11:54;;;;;;;4.93;1.60;;;11.20;75.70;;;;;;5300653;26;20451;-79
2024/04/19 08:14:27;;;;;;;5.50;1.08;;;11.30;75.80;;;;;;5292591;27;20018;-78
2024/04/19 08:16:57;;;;;;;6.15;1.60;;;11.30;75.30;;;;;;5288058;26;20081;-79
2024/04/19 08:19:28;;;;;;;3.22;0.65;;;11.50;76.00;;;;;;5289205;27;20525;-77
2024/04/19 08:21:58;;;;;;;1.15;0.30;;;11.80;74.50;;;;;;5288939;27;20340;-80
2024/04/19 08:24:29;;;;;;;1.38;0.50;;;11.50;73.00;;;;;;5300852;26;20028;-81
2024/04/19 08:26:59;;;;;;;3.65;0.90;;;11.40;72.80;;;;;;5285226;26;19997;-76
2024/04/19 08:29:32;;;;;;;3.08;0.93;;;11.30;72.90;;;;;;5322872;26;20017;-80
2024/04/19 08:32:07;;;;;;;65.00;8.98;;;11.40;73.20;;;;;;5300355;26;20017;-78
2024/04/19 08:34:37;;;;;;;2.33;1.13;;;11.40;72.50;;;;;;5322858;26;20010;-80
2024/04/19 08:37:05;;;;;;;1.35;0.30;;;11.50;72.30;;;;;;5294449;27;20021;-81
2024/04/19 08:39:35;;;;;;;1.52;0.28;;;11.50;71.90;;;;;;5298021;26;20017;-81
2024/04/19 08:42:08;;;;;;;5.03;0.50;;;11.60;70.90;;;;;;5324187;26;20006;-79
2024/04/19 08:44:45;;;;;;;;;;;11.60;71.20;;;;;;5301793;27;20077;-80
2024/04/19 08:47:18;;;;;;;0.80;0.30;;;11.40;71.40;;;;;;5299289;26;19950;-79
2024/04/19 08:49:49;;;;;;;1.83;0.30;;;11.80;73.30;;;;;;5291074;26;20010;-79
2024/04/19 08:52:21;;;;;;;0.60;0.20;;;12.00;71.40;;;;;;5317836;26;20485;-77
2024/04/19 08:55:12;;;;;;;2.05;0.40;;;12.20;70.70;;;;;;5290941;26;20007;-79
2024/04/19 08:57:44;;;;;;;4.15;0.40;;;12.20;72.00;;;;;;5313119;26;20465;-78
2024/04/19 09:00:19;;;;;;;2.00;0.25;;;12.10;71.00;;;;;;5286078;26;20350;-77
2024/04/19 09:02:52;;;;;;;2.45;0.65;;;12.00;70.40;;;;;;5308349;26;20010;-75
2024/04/19 09:05:22;;;;;;;2.17;1.00;;;12.00;70.80;;;;;;5326128;26;20356;-76
2024/04/19 09:07:50;;;;;;;0.82;0.20;;;11.70;70.80;;;;;;5308038;27;20010;-77
2024/04/19 09:10:21;;;;;;;1.23;0.30;;;11.10;71.10;;;;;;5301215;27;20010;-78
2024/04/19 09:12:51;;;;;;;1.35;0.30;;;11.40;71.20;;;;;;5288000;26;20352;-79
2024/04/19 09:15:26;;;;;;;1.88;0.30;;;11.40;70.90;;;;;;5291701;27;20021;-79
2024/04/19 09:17:57;;;;;;;1.75;0.20;;;11.90;70.30;;;;;;5320312;26;20021;-77
2024/04/19 09:20:27;;;;;;;1.02;0.30;;;12.20;69.50;;;;;;5290958;26;20485;-76
2024/04/19 09:22:58;;;;;;;0.75;0.20;;;11.70;69.30;;;;;;5317079;26;20034;-78
2024/04/19 09:25:28;;;;;;;1.23;0.20;;;11.20;69.10;;;;;;5296526;27;20005;-77
2024/04/19 09:27:58;;;;;;;1.85;0.43;;;11.40;70.20;;;;;;5296042;27;20350;-80
2024/04/19 09:30:31;;;;;;;1.85;0.20;;;11.80;69.90;;;;;;5314902;26;20006;-79
2024/04/19 09:33:02;;;;;;;4.80;0.40;;;11.40;69.20;;;;;;5295321;27;19998;-79
2024/04/19 09:35:33;;;;;;;6.68;0.40;;;11.20;65.90;;;;;;5290300;26;20009;-79
2024/04/19 09:38:03;;;;;;;1.13;0.20;;;11.70;69.00;;;;;;5317723;26;20002;-78
2024/04/19 09:40:37;;;;;;;1.55;0.40;;;11.90;69.60;;;;;;5303835;26;20049;-78
2024/04/19 09:43:09;;;;;;;2.33;0.20;;;12.20;68.90;;;;;;5293042;27;20017;-77
2024/04/19 09:45:45;;;;;;;2.28;0.10;;;12.60;69.50;;;;;;5314797;26;20014;-77
2024/04/19 09:48:19;;;;;;;0.90;0.10;;;12.50;66.70;;;;;;5314115;26;20036;-79
2024/04/19 09:50:51;;;;;;;0.50;0.10;;;12.50;65.30;;;;;;5294334;27;20018;-78
2024/04/19 09:53:29;;;;;;;2.45;0.32;;;12.60;64.20;;;;;;5290498;27;20014;-79
2024/04/19 09:56:09;;;;;;;0.80;0.30;;;12.70;64.40;;;;;;5301125;26;20076;-80
2024/04/19 09:58:40;;;;;;;1.48;0.13;;;12.80;66.00;;;;;;5310505;27;20452;-80
2024/04/19 10:01:14;;;;;;;1.25;0.20;;;13.10;65.30;;;;;;5302585;27;20005;-81
2024/04/19 10:03:47;;;;;;;0.70;0.20;;;13.20;65.40;;;;;;5307407;27;20052;-80
2024/04/19 10:06:18;;;;;;;1.25;0.10;;;13.10;63.10;;;;;;5281683;26;20028;-80
2024/04/19 10:08:51;;;;;;;0.52;0.10;;;12.90;63.40;;;;;;5288756;27;20013;-80
2024/04/19 10:11:22;;;;;;;1.75;0.30;;;12.70;61.20;;;;;;5300584;26;20384;-77
2024/04/19 10:13:52;;;;;;;0.57;0.10;;;12.70;61.40;;;;;;5296909;26;20014;-78
2024/04/19 10:16:28;;;;;;;2.05;0.10;;;12.60;61.10;;;;;;5294579;26;20006;-78
2024/04/19 10:19:05;;;;;;;1.13;0.25;;;12.80;60.20;;;;;;5303477;26;19999;-82
2024/04/19 10:21:39;;;;;;;1.38;0.20;;;13.10;60.80;;;;;;5293479;26;20080;-76
2024/04/19 10:24:16;;;;;;;0.90;0.30;;;13.30;60.50;;;;;;5306090;26;20005;-82
2024/04/19 10:26:50;;;;;;;1.13;0.20;;;13.50;62.50;;;;;;5322588;21;20006;31
2024/04/19 10:29:25;;;;;;;5.05;0.47;;;13.00;59.90;;;;;;5320378;26;20061;-81
2024/04/19 10:31:59;;;;;;;0.32;0.17;;;13.20;62.20;;;;;;5323763;27;20018;-81
2024/04/19 10:34:30;;;;;;;0.38;0.10;;;13.40;59.40;;;;;;5338032;26;19995;-83
2024/04/19 10:37:01;;;;;;;0.82;0.30;;;13.40;59.30;;;;;;5315417;27;20024;-85
2024/04/19 10:39:34;;;;;;;0.63;0.20;;;13.10;61.80;;;;;;5323388;26;20021;-83
2024/04/19 10:42:05;;;;;;;0.85;0.20;;;12.30;62.60;;;;;;5309012;27;20018;-81
2024/04/19 10:44:46;;;;;;;1.25;0.38;;;12.80;61.30;;;;;;5312275;26;20017;-81
2024/04/19 10:47:20;;;;;;;0.43;0.20;;;13.10;63.00;;;;;;5306568;27;20083;-83
2024/04/19 10:49:52;;;;;;;2.35;0.28;;;13.20;62.10;;;;;;5313176;27;20030;-83
2024/04/19 10:52:23;;;;;;;1.75;0.20;;;13.50;61.20;;;;;;5308958;27;20114;-79
2024/04/19 10:54:55;;;;;;;1.38;0.20;;;13.80;60.80;;;;;;5343507;26;20001;-82
2024/04/19 10:57:28;;;;;;;0.57;0.10;;;13.80;63.20;;;;;;5312932;27;20038;-83
2024/04/19 10:59:58;;;;;;;1.98;0.40;;;13.40;60.90;;;;;;5298595;26;20409;-81
2024/04/19 11:02:33;;;;;;;1.17;0.20;;;13.40;61.20;;;;;;5317221;27;19994;-82
2024/04/19 11:05:04;;;;;;;3.15;0.30;;;13.50;62.10;;;;;;5317561;26;20070;-81
2024/04/19 11:07:36;;;;;;;2.78;0.40;;;13.40;60.90;;;;;;5313855;27;20017;-82
2024/04/19 11:10:08;;;;;;;1.63;0.33;;;13.20;60.60;;;;;;5307206;27;20137;-82
2024/04/19 11:12:39;;;;;;;2.97;0.30;;;12.90;60.10;;;;;;5312260;27;20296;-81
2024/04/19 11:15:11;;;;;;;1.05;0.30;;;13.50;60.90;;;;;;5337698;26;20002;-84
2024/04/19 11:17:53;;;;;;;4.40;0.52;;;13.40;61.40;;;;;;5319209;26;20013;-83
2024/04/19 11:20:24;;;;;;;1.20;0.32;;;13.40;61.40;;;;;;5301125;27;20001;-78
2024/04/19 11:23:02;;;;;;;2.78;0.30;;;13.50;61.00;;;;;;5316578;26;20081;-79
2024/04/19 11:25:38;;;;;;;1.05;0.20;;;13.10;60.40;;;;;;5269385;27;20001;-78
2024/04/19 11:28:09;;;;;;;3.42;0.40;;;13.40;60.60;;;;;;5323034;26;20357;-77
2024/04/19 11:30:41;;;;;;;4.07;0.20;;;13.60;59.30;;;;;;5291163;26;20061;-78
2024/04/19 11:33:24;;;;;;;1.95;0.52;;;13.70;59.00;;;;;;5303226;26;20006;-79
2024/04/19 11:36:14;;;;;;;1.02;0.17;;;13.70;58.30;;;;;;5310129;27;20006;-80
2024/04/19 11:38:46;;;;;;;2.53;0.15;;;14.00;59.20;;;;;;5296883;27;20046;-84
2024/04/19 11:44:05;;;;;;;2.00;0.47;;;14.50;57.50;;;;;;5326590;27;20009;-84
2024/04/19 11:47:04;;;;;;;0.70;0.30;;;14.70;58.40;;;;;;5326412;27;20006;-81
2024/04/19 11:49:38;;;;;;;19.75;9.05;;;14.10;57.40;;;;;;5324377;27;19998;-82
2024/04/19 11:52:12;;;;;;;3.78;1.30;;;13.70;57.80;;;;;;5328812;26;20465;-83
2024/04/19 11:55:10;;;;;;;1.45;0.45;;;14.10;59.10;;;;;;5234654;27;19999;-84
2024/04/19 11:58:52;;;;;;;3.08;0.50;;;14.30;58.60;;;;;;5200696;27;20008;-83
2024/04/19 12:05:57;;;;;;;2.10;0.63;;;14.40;58.50;;;;;;5103381;28;20034;-81
2024/04/19 12:08:37;;;;;;;4.63;1.65;;;14.80;58.80;;;;;;5013041;28;20008;-85
2024/04/19 12:12:03;;;;;;;0.88;0.20;;;14.40;57.20;;;;;;4975961;28;20009;-79
2024/04/19 12:15:35;;;;;;;7.70;3.65;;;14.70;56.60;;;;;;5295719;27;20034;-83
2024/04/19 12:18:56;;;;;;;1.15;0.30;;;15.20;58.40;;;;;;5264730;27;20055;-86
2024/04/19 12:21:37;;;;;;;;;;;15.10;59.00;;;;;;5264047;27;20007;-83
2024/04/19 12:24:16;;;;;;;7.60;3.03;;;15.50;58.60;;;;;;5234002;27;19974;-86
2024/04/19 12:26:52;;;;;;;13.68;4.78;;;15.60;58.30;;;;;;5234183;27;19995;-86
2024/04/19 12:29:28;;;;;;;1.42;0.93;;;15.50;58.30;;;;;;5256419;27;20018;-79
2024/04/19 12:32:02;;;;;;;0.70;0.20;;;15.60;58.80;;;;;;5254590;27;20070;-79
2024/04/19 12:34:35;;;;;;;1.88;0.20;;;15.30;57.40;;;;;;5178190;27;20053;-79
2024/04/19 12:37:12;;;;;;;2.28;0.20;;;15.20;56.90;;;;;;5149106;27;20009;-83
2024/04/19 12:39:43;;;;;;;0.80;0.20;;;15.70;57.80;;;;;;5183246;27;20077;-79
2024/04/19 12:42:14;;;;;;;2.17;0.30;;;15.60;57.70;;;;;;5162800;27;20001;-77
2024/04/19 12:44:48;;;;;;;0.82;0.30;;;15.50;56.90;;;;;;5186696;27;20008;-81
2024/04/19 12:47:24;;;;;;;3.70;0.22;;;15.30;56.40;;;;;;5191617;27;20428;-82
2024/04/19 12:49:57;;;;;;;297.90;29.33;;;15.50;58.90;;;;;;5167280;27;20554;-81
2024/04/19 12:52:45;;;;;;;119.75;11.23;;;15.50;57.40;;;;;;5256625;27;20007;-84
2024/04/19 12:55:26;;;;;;;161.30;15.70;;;15.80;58.70;;;;;;5206638;27;20012;-79
2024/04/19 12:58:01;;;;;;;1040.22;148.05;;;15.60;57.30;;;;;;5198822;27;19999;-83
2024/04/19 13:00:46;;;;;;;253.60;27.33;;;15.80;58.20;;;;;;5191144;27;20021;-83
2024/04/19 13:03:24;;;;;;;111.15;10.25;;;15.90;57.30;;;;;;5134312;27;20008;-79
2024/04/19 13:05:57;;;;;;;52.35;6.25;;;15.70;58.20;;;;;;5227567;27;20489;-81
2024/04/19 13:08:32;;;;;;;2.05;0.85;;;15.90;58.70;;;;;;5253821;27;20347;-79
2024/04/19 13:11:07;;;;;;;5.57;1.02;;;15.30;54.70;;;;;;5225996;27;20027;-81
2024/04/19 13:13:52;;;;;;;1.25;0.20;;;15.10;56.80;;;;;;5228558;27;20018;-78
2024/04/19 13:16:24;;;;;;;0.98;0.10;;;15.00;55.40;;;;;;5228554;27;20043;-78
2024/04/19 13:19:01;;;;;;;0.63;0.20;;;15.10;56.90;;;;;;5200315;27;20004;-85
2024/04/19 13:21:37;;;;;;;1.65;0.20;;;15.30;58.50;;;;;;5200367;27;20014;-83
2024/04/19 13:24:34;;;;;;;18.15;3.38;;;15.30;57.70;;;;;;5229465;27;20003;-80
2024/04/19 13:27:10;;;;;;;557.75;66.25;;;15.10;58.90;;;;;;5261769;27;20047;-84
2024/04/19 13:29:48;;;;;;;56.88;9.30;;;15.70;58.50;;;;;;5257522;27;20010;-81
2024/04/19 13:32:20;;;;;;;;;;;15.80;57.80;;;;;;5223460;27;20003;-80
2024/04/19 13:34:52;;;;;;;301.00;35.05;;;15.20;55.80;;;;;;5251343;27;20498;-78
2024/04/19 13:37:31;;;;;;;0.63;0.20;;;15.40;57.00;;;;;;5249594;27;20039;-82
2024/04/19 13:40:10;;;;;;;2.45;0.50;;;15.50;56.50;;;;;;5277805;27;20005;-89
2024/04/19 13:52:39;;;;;;;0.80;0.30;;;15.20;55.20;;;;;;762733;21;20336;-86
2024/04/19 13:55:23;;;;;;;447.75;48.58;;;15.10;54.80;;;;;;5323228;26;20008;-88
2024/04/19 13:57:59;;;;;;;1514.63;208.80;;;15.40;54.80;;;;;;5322249;27;20008;-83
2024/04/19 14:00:39;;;;;;;198.15;19.63;;;14.80;56.00;;;;;;5315201;26;20040;-88
2024/04/19 14:03:24;;;;;;;2.38;0.50;;;15.60;55.90;;;;;;5295533;27;20005;-85
2024/04/19 14:05:55;;;;;;;1.77;0.30;;;15.40;55.50;;;;;;5291345;27;19994;-87
2024/04/19 14:08:30;;;;;;;4.72;0.60;;;15.40;54.90;;;;;;5319465;27;20005;-87
2024/04/19 14:11:06;;;;;;;1.73;0.50;;;15.50;56.10;;;;;;5295003;27;20137;-87
2024/04/19 14:13:44;;;;;;;2.50;0.60;;;15.00;56.20;;;;;;5289534;27;20013;-88
2024/04/19 14:16:25;;;;;;;1.45;0.35;;;15.00;55.50;;;;;;5297556;27;20017;-84
2024/04/19 14:19:02;;;;;;;194.52;11.95;;;14.90;57.00;;;;;;5281719;27;20007;-85
2024/04/19 14:24:48;;;;;;;29.67;3.13;;;15.10;57.30;;;;;;5243190;27;20015;-79
2024/04/19 14:27:22;;;;;;;1.65;0.47;;;15.20;57.80;;;;;;5215751;27;20226;-81
2024/04/19 14:29:53;;;;;;;0.95;0.50;;;14.80;57.90;;;;;;5239060;27;20023;-82
2024/04/19 14:32:24;;;;;;;1.23;0.40;;;14.70;57.30;;;;;;5223505;27;20015;-82
2024/04/19 14:34:55;;;;;;;1.00;0.50;;;14.70;56.60;;;;;;5199028;27;20004;-83
2024/04/19 14:37:26;;;;;;;8.95;1.20;;;15.30;58.10;;;;;;5220225;27;20625;-83
2024/04/19 14:39:56;;;;;;;1.55;0.60;;;14.90;58.60;;;;;;5229578;27;20023;-85
2024/04/19 14:43:33;;;;;;;2.63;0.77;;;14.90;58.40;;;;;;5213285;27;20051;-86
2024/04/19 14:46:06;;;;;;;122.43;15.55;;;14.70;57.30;;;;;;5077633;28;20022;-84
2024/04/19 14:48:40;;;;;;;;;;;14.50;58.60;;;;;;5073543;28;20011;-78
2024/04/19 14:51:17;;;;;;;2.65;0.60;;;14.40;58.60;;;;;;5069552;28;20471;-79
2024/04/19 14:53:52;;;;;;;2.05;0.50;;;14.30;59.30;;;;;;5087621;28;20007;-78
2024/04/19 14:56:24;;;;;;;1.38;0.30;;;14.20;60.20;;;;;;5087289;28;20025;-82
2024/04/19 14:58:58;;;;;;;1.17;0.40;;;14.20;60.30;;;;;;5092750;28;20016;-79
2024/04/19 15:01:44;;;;;;;1.13;0.40;;;13.60;59.30;;;;;;5059486;28;20049;-77
2024/04/19 15:04:28;;;;;;;3.75;0.90;;;14.00;59.90;;;;;;5105091;27;20020;-78
2024/04/19 15:07:05;;;;;;;2.97;1.00;;;13.90;60.90;;;;;;5115719;27;20067;-78
2024/04/19 15:09:46;;;;;;;4.30;1.20;;;13.60;63.00;;;;;;5138135;27;20544;-76
2024/04/19 15:12:16;;;;;;;4.20;1.40;;;13.40;64.30;;;;;;5211151;27;20015;-78
2024/04/19 15:14:56;;;;;;;2.60;1.00;;;13.30;66.50;;;;;;5195677;27;20059;-79